»·PEaware :: AAL427 KOTH-KEUG

AAL427 :: KOTH-KEUG

FLIGHT INFORMATION

Flight Status: Arrived
Operator:
American Airlines
More flights by this operator :: More flights under this callsign
Pilot: Chris S. (2433)
Aircraft: AIRBUS A320
(A320)
More flights by this aircraft type
Origin: KOTH North Bend Mun
United States
Destination: KEUG Mahlon Sweet
United States
More flights between these airports :: More routes between these airports
Route: +OTH6 OTH V121 EUG
File this flight plan on PilotEdge
Remarks:
Altitude:
(Current/Filed)
7,000ft
Speed:
(Current/Filed)
280kts
Departed: 26-Feb-18 10:07 AM
Arrived: 26-Feb-18 10:38 AM
Distance/Time
Traveled:
61nm/0:31
Distance/Time
To Go:
Arrived

Flight Plot

Page will automatically refresh every two minutes.

Flight plan parsing failed; only flown route is shown


Map Options




Map Legend


Flown Route
Filed Route
Departure Airport
Arrival Airport
Navaid (VOR, NDB)
Fix

Horizontal Profiles

Position Reports

Time Latitude Longitude Heading Altitude Ground
Speed
26-Feb-18 09:50 43.415877 -124.246010 150 31ft 0kts
26-Feb-18 09:51 43.415877 -124.246010 150 31ft 0kts
26-Feb-18 09:52 43.415877 -124.246010 150 31ft 0kts
26-Feb-18 09:53 43.415877 -124.246010 150 31ft 0kts
26-Feb-18 09:54 43.415877 -124.246010 150 31ft 0kts
26-Feb-18 09:55 43.415877 -124.246010 150 31ft 0kts
26-Feb-18 09:56 43.415877 -124.246010 150 31ft 0kts
26-Feb-18 09:57 43.415877 -124.246010 150 31ft 0kts
26-Feb-18 09:58 43.415877 -124.246010 150 31ft 0kts
26-Feb-18 09:59 43.415877 -124.246010 150 31ft 0kts
26-Feb-18 10:00 43.415877 -124.246010 150 31ft 0kts
26-Feb-18 10:01 43.415877 -124.246010 150 31ft 0kts
26-Feb-18 10:02 43.415877 -124.246010 150 31ft 0kts
26-Feb-18 10:03 43.415876 -124.246010 150 31ft 0kts
26-Feb-18 10:04 43.415876 -124.246010 150 31ft 0kts
26-Feb-18 10:05 43.415876 -124.246010 150 31ft 0kts
26-Feb-18 10:06 43.415857 -124.245994 150 31ft 2kts
26-Feb-18 10:07 43.416600 -124.245091 328 26ft 5kts
26-Feb-18 10:08 43.418934 -124.247036 295 23ft 8kts
26-Feb-18 10:09 43.417931 -124.249660 239 31ft 8kts
26-Feb-18 10:10 43.416150 -124.254039 240 26ft 20kts
26-Feb-18 10:11 43.413976 -124.259853 312 13ft 0kts
26-Feb-18 10:12 43.413976 -124.259854 312 13ft 0kts
26-Feb-18 10:13 43.414600 -124.260437 333 11ft 2kts
26-Feb-18 10:14 43.418638 -124.251084 60 27ft 136kts
26-Feb-18 10:15 43.453005 -124.206841 355 2743ft 216kts
26-Feb-18 10:16 43.470133 -124.282647 239 5763ft 276kts
26-Feb-18 10:17 43.432299 -124.375832 238 7023ft 282kts
26-Feb-18 10:18 43.403323 -124.473944 279 7037ft 283kts
26-Feb-18 10:19 43.459658 -124.523086 21 7037ft 264kts
26-Feb-18 10:20 43.480621 -124.440229 104 7041ft 260kts
26-Feb-18 10:21 43.500734 -124.352621 51 7028ft 260kts
26-Feb-18 10:22 43.545082 -124.273988 51 7031ft 260kts
26-Feb-18 10:23 43.588867 -124.195143 53 7031ft 260kts
26-Feb-18 10:24 43.632479 -124.116087 52 7031ft 260kts
26-Feb-18 10:25 43.676466 -124.036972 52 7031ft 260kts
26-Feb-18 10:26 43.720263 -123.957918 52 7031ft 260kts
26-Feb-18 10:27 43.763875 -123.878894 52 7031ft 260kts
26-Feb-18 10:28 43.807161 -123.800206 53 7025ft 261kts
26-Feb-18 10:29 43.853329 -123.715991 49 7018ft 276kts
26-Feb-18 10:30 43.898791 -123.632906 49 7007ft 270kts
26-Feb-18 10:31 43.943983 -123.550037 49 7003ft 270kts
26-Feb-18 10:32 44.004499 -123.497832 15 7003ft 264kts
26-Feb-18 10:33 44.073909 -123.466008 15 7004ft 264kts
26-Feb-18 10:34 44.143547 -123.438522 5 7002ft 263kts
26-Feb-18 10:35 44.215487 -123.424762 5 7003ft 262kts
26-Feb-18 10:36 44.283626 -123.412457 5 6470ft 234kts
26-Feb-18 10:37 44.344055 -123.389041 53 5323ft 235kts
26-Feb-18 10:38 44.351998 -123.304007 86 4692ft 219kts
26-Feb-18 10:39 44.323205 -123.242369 146 4048ft 190kts
26-Feb-18 10:40 44.279754 -123.221432 179 3383ft 152kts
26-Feb-18 10:41 44.238704 -123.220586 179 2530ft 140kts
26-Feb-18 10:42 44.200140 -123.220119 180 1661ft 132kts
26-Feb-18 10:43 44.163154 -123.219584 179 953ft 136kts
26-Feb-18 10:44 44.128102 -123.219039 179 364ft 96kts
26-Feb-18 10:45 44.115966 -123.218173 53 371ft 7kts
26-Feb-18 10:46 44.117238 -123.217043 31 373ft 16kts
26-Feb-18 10:47 44.119415 -123.213465 100 373ft 4kts
26-Feb-18 10:48 44.119354 -123.213299 120 373ft 0kts
26-Feb-18 10:49 44.119354 -123.213299 120 373ft 0kts

Navigation Log

Ident Type
Flight plan parsing failed, navigation log unavailable